Time;durP1;ratioP1;P1;durP2;ratioP2;P2;SDS_P1;SDS_P2;PMS_P1;PMS_P2;Temp;Humidity;BMP_temperature;BMP_pressure;BME280_temperature;BME280_humidity;BME280_pressure;Samples;Min_cycle;Max_cycle;Signal;HPM_P1;HPM_P2
2021/07/09 00:01:56;;;;;;;4.45;3.22;;;22.10;97.10;;;;;;4991097;28;20045;-82
2021/07/09 00:04:23;;;;;;;7.25;3.63;;;22.10;97.00;;;;;;4991432;28;20030;-80
2021/07/09 00:06:49;;;;;;;6.07;3.50;;;22.10;97.40;;;;;;4989377;28;20046;-85
2021/07/09 00:09:16;;;;;;;4.90;3.40;;;22.10;97.40;;;;;;4991861;28;20030;-81
2021/07/09 00:11:45;;;;;;;4.80;3.55;;;22.10;97.60;;;;;;4991480;28;20395;-82
2021/07/09 00:14:11;;;;;;;4.03;3.00;;;22.10;97.90;;;;;;4991389;28;20030;-80
2021/07/09 00:16:38;;;;;;;3.92;3.17;;;22.10;97.90;;;;;;4991345;28;20120;-83
2021/07/09 00:19:05;;;;;;;3.70;2.67;;;22.10;98.00;;;;;;4991521;28;20022;-79
2021/07/09 00:21:32;;;;;;;4.95;2.90;;;22.10;98.00;;;;;;4992060;28;20435;-79
2021/07/09 00:23:59;;;;;;;4.75;3.60;;;22.10;98.00;;;;;;4989561;28;20022;-83
2021/07/09 00:26:26;;;;;;;5.78;3.70;;;22.10;98.00;;;;;;4991651;28;20038;-85
2021/07/09 00:28:51;;;;;;;4.95;3.30;;;22.10;98.00;;;;;;4990893;28;20034;-83
2021/07/09 00:31:17;;;;;;;5.53;3.67;;;22.10;98.00;;;;;;4991407;28;20030;-85
2021/07/09 00:33:42;;;;;;;4.40;3.20;;;22.10;98.00;;;;;;5006475;28;20434;-81
2021/07/09 00:36:08;;;;;;;6.28;3.80;;;22.00;98.00;;;;;;4991106;28;20080;-82
2021/07/09 00:38:34;;;;;;;4.32;3.33;;;22.10;98.00;;;;;;4991904;28;20046;-80
2021/07/09 00:40:59;;;;;;;6.50;4.05;;;22.10;97.90;;;;;;4991736;28;20065;-83
2021/07/09 00:43:25;;;;;;;5.10;3.78;;;22.00;97.90;;;;;;4990867;28;20023;-82
2021/07/09 00:45:51;;;;;;;5.97;3.75;;;22.00;97.80;;;;;;4991016;28;20034;-79
2021/07/09 00:48:17;;;;;;;4.70;3.28;;;22.00;97.80;;;;;;4991504;28;20029;-80
2021/07/09 00:50:43;;;;;;;4.28;3.30;;;22.00;97.70;;;;;;4989962;28;20080;-79
2021/07/09 00:53:09;;;;;;;6.95;3.80;;;22.00;97.70;;;;;;4991362;28;20380;-84
2021/07/09 00:55:35;;;;;;;5.10;4.07;;;22.00;97.60;;;;;;4991211;28;20041;-79
2021/07/09 00:58:01;;;;;;;4.25;2.85;;;22.00;97.60;;;;;;4991682;28;20490;-81
2021/07/09 01:00:28;;;;;;;4.93;3.72;;;22.00;97.60;;;;;;4994188;28;20022;-81
2021/07/09 01:02:55;;;;;;;4.80;3.90;;;22.00;97.50;;;;;;4994349;28;20038;-85
2021/07/09 01:05:20;;;;;;;5.70;3.53;;;22.00;97.50;;;;;;4994806;28;20054;-83
2021/07/09 01:07:46;;;;;;;7.18;3.80;;;22.00;97.50;;;;;;4994688;28;20065;-79
2021/07/09 01:10:15;;;;;;;6.13;3.28;;;21.90;97.40;;;;;;4994425;28;20194;-81
2021/07/09 01:12:42;;;;;;;3.38;2.97;;;21.90;97.30;;;;;;4994776;28;20026;-82
2021/07/09 01:15:11;;;;;;;5.60;3.47;;;22.00;97.30;;;;;;4993216;28;20387;-80
2021/07/09 01:17:38;;;;;;;5.00;3.38;;;22.00;97.30;;;;;;4994047;28;20072;-83
2021/07/09 01:20:09;;;;;;;4.75;3.13;;;22.00;97.20;;;;;;4995003;28;20026;-82
2021/07/09 01:22:37;;;;;;;4.60;3.60;;;21.90;97.20;;;;;;4994687;28;20031;-78
2021/07/09 01:25:25;;;;;;;3.92;3.28;;;21.90;97.10;;;;;;4993028;28;20035;-84
2021/07/09 01:28:05;;;;;;;4.03;3.30;;;21.90;97.10;;;;;;5025051;28;20422;-82
2021/07/09 01:30:32;;;;;;;5.47;3.30;;;21.90;97.00;;;;;;4994510;28;20176;-80
2021/07/09 01:32:58;;;;;;;4.78;3.25;;;21.90;97.00;;;;;;4993837;28;20116;-84
2021/07/09 01:35:26;;;;;;;3.80;3.20;;;21.90;97.00;;;;;;4994174;28;20082;-80
2021/07/09 01:38:02;;;;;;;4.78;3.22;;;21.90;96.90;;;;;;4987214;28;20035;-83
2021/07/09 01:40:29;;;;;;;4.75;3.70;;;21.90;96.80;;;;;;4994000;28;20098;-80
2021/07/09 01:42:56;;;;;;;4.03;3.08;;;21.90;96.80;;;;;;4994071;28;20026;-79
2021/07/09 01:45:22;;;;;;;4.78;3.45;;;21.90;96.70;;;;;;4994061;28;20098;-81
2021/07/09 01:47:49;;;;;;;5.10;3.58;;;21.90;96.60;;;;;;4993949;28;20485;-79
2021/07/09 01:50:16;;;;;;;4.38;3.40;;;21.90;96.60;;;;;;4993748;28;20019;-79
2021/07/09 01:52:42;;;;;;;4.32;3.35;;;21.90;96.50;;;;;;4993465;28;20044;-81
2021/07/09 01:55:09;;;;;;;3.90;3.17;;;21.80;96.50;;;;;;4993296;28;20034;-84
2021/07/09 01:57:34;;;;;;;5.22;3.10;;;21.80;96.50;;;;;;4993544;28;20050;-82
2021/07/09 02:00:01;;;;;;;4.38;3.10;;;21.80;96.40;;;;;;4993530;28;20462;-87
2021/07/09 02:02:27;;;;;;;5.93;3.03;;;21.80;96.50;;;;;;4994223;28;20443;-82
2021/07/09 02:04:56;;;;;;;5.13;3.50;;;21.80;96.40;;;;;;4993713;28;20019;-82
2021/07/09 02:07:23;;;;;;;4.43;3.50;;;21.80;96.40;;;;;;4994003;28;20027;-88
2021/07/09 02:09:52;;;;;;;4.47;3.30;;;21.80;96.30;;;;;;4993809;28;20026;-86
2021/07/09 02:12:20;;;;;;;3.95;3.38;;;21.80;96.30;;;;;;4993930;28;20026;-80
2021/07/09 02:14:47;;;;;;;3.60;3.10;;;21.80;96.20;;;;;;4993014;28;20026;-79
2021/07/09 02:17:14;;;;;;;4.18;3.35;;;21.80;96.20;;;;;;4993328;28;20096;-79
2021/07/09 02:19:41;;;;;;;4.28;3.30;;;21.80;96.20;;;;;;4992943;28;20022;-79
2021/07/09 02:22:11;;;;;;;3.80;3.00;;;21.80;96.20;;;;;;4992805;28;20084;-78
2021/07/09 02:24:41;;;;;;;3.78;3.13;;;21.70;96.10;;;;;;4992588;28;20033;-79
2021/07/09 02:27:08;;;;;;;4.78;3.20;;;21.70;96.00;;;;;;4993142;28;20054;-84
2021/07/09 02:29:35;;;;;;;6.35;3.20;;;21.80;96.00;;;;;;4993117;28;20029;-80
2021/07/09 02:32:03;;;;;;;3.72;3.30;;;21.70;96.00;;;;;;4993250;28;20506;-85
2021/07/09 02:34:29;;;;;;;6.45;3.85;;;21.70;95.90;;;;;;4992600;28;20165;-84
2021/07/09 02:36:56;;;;;;;6.28;3.47;;;21.70;95.80;;;;;;4991703;28;20056;-84
2021/07/09 02:39:22;;;;;;;5.55;3.47;;;21.70;95.80;;;;;;4991696;28;20169;-85
2021/07/09 02:41:48;;;;;;;6.18;3.38;;;21.70;95.80;;;;;;4993125;28;20022;-84
2021/07/09 02:44:14;;;;;;;4.25;3.28;;;21.70;95.70;;;;;;4992857;28;20022;-85
2021/07/09 02:46:40;;;;;;;4.50;3.35;;;21.70;95.70;;;;;;4992335;28;20130;-84
2021/07/09 02:49:05;;;;;;;4.53;3.65;;;21.70;95.60;;;;;;4993095;28;20026;-82
2021/07/09 02:51:31;;;;;;;5.32;4.30;;;21.70;95.50;;;;;;4993019;28;20087;-85
2021/07/09 02:53:57;;;;;;;5.90;3.00;;;21.70;95.50;;;;;;4992576;28;20533;-84
2021/07/09 02:56:22;;;;;;;4.50;3.40;;;21.70;95.40;;;;;;5006193;28;20031;-81
2021/07/09 02:58:48;;;;;;;6.05;3.25;;;21.60;95.40;;;;;;4991904;28;20061;-84
2021/07/09 03:01:13;;;;;;;4.35;3.47;;;21.60;95.40;;;;;;4992006;28;20038;-82
2021/07/09 03:03:39;;;;;;;6.00;3.30;;;21.60;95.30;;;;;;4991870;28;20033;-83
2021/07/09 03:06:04;;;;;;;4.88;3.25;;;21.60;95.30;;;;;;4992775;28;20372;-80
2021/07/09 03:08:30;;;;;;;3.63;2.70;;;21.60;95.40;;;;;;4993055;28;20387;-82
2021/07/09 03:10:56;;;;;;;5.18;3.17;;;21.60;95.30;;;;;;4991963;28;20045;-80
2021/07/09 03:13:21;;;;;;;4.28;3.40;;;21.70;95.30;;;;;;4992434;28;20437;-80
2021/07/09 03:15:47;;;;;;;4.63;3.55;;;21.60;95.20;;;;;;4991403;28;20045;-81
2021/07/09 03:18:13;;;;;;;3.50;3.00;;;21.60;95.20;;;;;;4992658;28;20076;-85
2021/07/09 03:20:38;;;;;;;5.00;3.60;;;21.60;95.30;;;;;;4991829;28;20030;-82
2021/07/09 03:23:04;;;;;;;7.65;4.35;;;21.60;95.20;;;;;;4992255;28;20033;-82
2021/07/09 03:25:30;;;;;;;5.18;3.83;;;21.60;95.10;;;;;;4991929;28;20394;-82
2021/07/09 03:27:55;;;;;;;4.90;3.65;;;21.60;95.20;;;;;;4991621;28;20030;-85
2021/07/09 03:30:21;;;;;;;3.92;3.05;;;21.60;95.00;;;;;;4991826;28;20093;-84
2021/07/09 03:32:47;;;;;;;5.10;3.42;;;21.60;95.10;;;;;;4991737;28;20041;-88
2021/07/09 03:35:13;;;;;;;4.20;3.63;;;21.60;94.90;;;;;;4991115;28;20038;-81
2021/07/09 03:37:39;;;;;;;5.10;3.65;;;21.60;95.00;;;;;;4991559;28;20060;-82
2021/07/09 03:40:07;;;;;;;6.13;3.80;;;21.50;94.90;;;;;;4992047;28;20026;-85
2021/07/09 03:42:33;;;;;;;4.32;3.85;;;21.50;94.80;;;;;;4991433;28;20027;-84
2021/07/09 03:44:59;;;;;;;8.90;3.85;;;21.50;94.80;;;;;;4992077;28;20496;-83
2021/07/09 03:47:24;;;;;;;5.40;3.83;;;21.50;94.80;;;;;;4990730;28;20041;-84
2021/07/09 03:49:50;;;;;;;5.65;3.80;;;21.50;94.80;;;;;;4991647;28;20109;-82
2021/07/09 03:52:16;;;;;;;4.80;3.75;;;21.50;94.70;;;;;;4992204;28;20069;-81
2021/07/09 03:54:41;;;;;;;6.55;4.07;;;21.50;94.70;;;;;;4991137;28;20430;-86
2021/07/09 03:57:07;;;;;;;5.28;3.45;;;21.50;94.90;;;;;;4991085;28;20065;-85
2021/07/09 03:59:33;;;;;;;5.45;3.78;;;21.50;94.70;;;;;;4991428;28;20101;-82
2021/07/09 04:01:59;;;;;;;5.35;3.47;;;21.50;94.60;;;;;;4991102;28;20038;-81
2021/07/09 04:04:25;;;;;;;4.30;3.85;;;21.50;94.50;;;;;;4992074;28;20137;-81
2021/07/09 04:06:50;;;;;;;5.22;3.83;;;21.50;94.50;;;;;;4991800;28;20074;-82
2021/07/09 04:09:16;;;;;;;5.15;3.88;;;21.50;94.50;;;;;;4991670;28;20030;-80
2021/07/09 04:11:41;;;;;;;5.53;3.63;;;21.50;94.70;;;;;;4991136;28;20105;-81
2021/07/09 04:14:07;;;;;;;5.38;3.58;;;21.50;94.60;;;;;;4991586;28;20104;-79
2021/07/09 04:16:33;;;;;;;4.03;3.63;;;21.50;94.60;;;;;;4991679;28;20070;-81
2021/07/09 04:18:58;;;;;;;5.10;3.67;;;21.50;94.60;;;;;;4991676;28;20117;-80
2021/07/09 04:21:24;;;;;;;5.07;3.95;;;21.50;94.60;;;;;;4991711;28;20509;-79
2021/07/09 04:23:49;;;;;;;4.40;3.63;;;21.40;94.50;;;;;;4991150;28;20546;-81
2021/07/09 04:26:15;;;;;;;5.32;4.22;;;21.50;94.50;;;;;;4991042;28;20022;-82
2021/07/09 04:28:41;;;;;;;6.25;4.38;;;21.50;94.50;;;;;;4990178;28;20031;-79
2021/07/09 04:31:07;;;;;;;7.35;4.03;;;21.50;94.50;;;;;;4990098;28;20054;-84
2021/07/09 04:33:32;;;;;;;4.85;4.20;;;21.40;94.40;;;;;;4992769;28;20121;-81
2021/07/09 04:35:58;;;;;;;7.05;4.05;;;21.40;94.30;;;;;;4995432;28;20027;-85
2021/07/09 04:38:24;;;;;;;5.07;4.30;;;21.40;94.40;;;;;;4995762;28;20137;-85
2021/07/09 04:40:49;;;;;;;4.72;3.70;;;21.40;94.40;;;;;;4995596;28;20038;-89
2021/07/09 04:43:15;;;;;;;4.70;3.50;;;21.40;94.30;;;;;;4995251;28;20037;-79
2021/07/09 04:45:41;;;;;;;5.10;3.90;;;21.40;94.30;;;;;;4994933;28;20042;-79
2021/07/09 04:48:07;;;;;;;4.63;3.80;;;21.40;94.30;;;;;;4994948;28;20589;-83
2021/07/09 04:50:33;;;;;;;4.70;3.83;;;21.40;94.30;;;;;;4994082;28;20379;-87
2021/07/09 04:52:59;;;;;;;5.65;4.20;;;21.40;94.20;;;;;;4995022;28;20057;-79
2021/07/09 04:55:25;;;;;;;4.82;3.63;;;21.40;94.20;;;;;;4993115;28;20065;-81
2021/07/09 04:57:51;;;;;;;4.95;4.00;;;21.40;94.20;;;;;;4994714;28;20034;-80
2021/07/09 05:00:16;;;;;;;4.40;3.67;;;21.40;94.20;;;;;;4994256;28;20402;-82
2021/07/09 05:02:42;;;;;;;5.97;4.15;;;21.40;94.20;;;;;;4994324;28;20122;-80
2021/07/09 05:05:10;;;;;;;6.28;3.97;;;21.40;94.10;;;;;;4994499;28;20034;-80
2021/07/09 05:07:36;;;;;;;6.28;4.32;;;21.40;94.10;;;;;;4994307;28;20041;-79
2021/07/09 05:10:04;;;;;;;5.35;4.00;;;21.40;94.10;;;;;;4994668;28;20023;-79
2021/07/09 05:12:30;;;;;;;6.60;4.05;;;21.40;94.10;;;;;;4994494;28;20030;-77
2021/07/09 05:14:56;;;;;;;4.45;3.60;;;21.40;94.10;;;;;;4993728;28;20513;-79
2021/07/09 05:17:21;;;;;;;4.95;3.60;;;21.30;94.00;;;;;;4994412;28;20041;-78
2021/07/09 05:19:47;;;;;;;5.53;4.22;;;21.40;94.00;;;;;;4994348;28;20479;-81
2021/07/09 05:22:13;;;;;;;5.55;3.90;;;21.40;94.00;;;;;;4994827;28;20514;-78
2021/07/09 05:24:38;;;;;;;6.18;4.45;;;21.30;94.00;;;;;;4993844;28;20031;-80
2021/07/09 05:27:06;;;;;;;4.82;3.88;;;21.40;93.90;;;;;;4994709;28;20038;-81
2021/07/09 05:29:31;;;;;;;7.40;3.80;;;21.40;93.90;;;;;;4994597;28;20545;-80
2021/07/09 05:31:58;;;;;;;5.32;4.05;;;21.30;93.90;;;;;;4993613;28;20113;-80
2021/07/09 05:34:24;;;;;;;5.97;4.65;;;21.30;93.90;;;;;;4994699;28;20113;-79
2021/07/09 05:36:50;;;;;;;4.85;3.78;;;21.30;93.90;;;;;;4993254;28;20050;-81
2021/07/09 05:39:16;;;;;;;5.25;4.10;;;21.30;93.90;;;;;;4993275;28;20033;-79
2021/07/09 05:41:43;;;;;;;4.60;3.70;;;21.30;93.80;;;;;;4993545;28;20019;-78
2021/07/09 05:44:09;;;;;;;5.97;4.20;;;21.30;93.80;;;;;;4993037;28;20031;-80
2021/07/09 05:46:35;;;;;;;6.22;4.35;;;21.30;93.80;;;;;;4993087;28;20033;-80
2021/07/09 05:49:01;;;;;;;5.30;4.00;;;21.30;93.70;;;;;;4994312;28;20022;-79
2021/07/09 05:51:27;;;;;;;7.05;4.25;;;21.30;93.70;;;;;;4993950;28;20041;-78
2021/07/09 05:53:53;;;;;;;5.97;4.15;;;21.30;93.80;;;;;;4993000;28;20029;-79
2021/07/09 05:56:18;;;;;;;5.43;3.78;;;21.30;93.80;;;;;;4993098;28;20038;-77
2021/07/09 05:58:44;;;;;;;5.78;4.05;;;21.30;93.70;;;;;;4993735;28;20498;-78
2021/07/09 06:01:09;;;;;;;5.35;4.18;;;21.30;93.70;;;;;;4993790;28;20125;-80
2021/07/09 06:03:35;;;;;;;4.80;3.67;;;21.30;93.80;;;;;;4993083;28;20104;-81
2021/07/09 06:06:01;;;;;;;5.03;4.05;;;21.30;93.80;;;;;;4993093;28;20026;-79
2021/07/09 06:08:26;;;;;;;7.13;4.25;;;21.30;93.80;;;;;;4992069;28;20038;-79
2021/07/09 06:10:52;;;;;;;7.63;4.72;;;21.30;93.90;;;;;;4993119;28;20070;-78
2021/07/09 06:13:18;;;;;;;6.05;4.47;;;21.30;93.90;;;;;;4992916;28;20023;-80
2021/07/09 06:15:43;;;;;;;8.63;5.28;;;21.30;94.00;;;;;;4993361;28;20510;-80
2021/07/09 06:18:09;;;;;;;10.75;4.85;;;21.30;94.00;;;;;;4993066;28;20034;-79
2021/07/09 06:20:34;;;;;;;8.52;5.45;;;21.40;94.50;;;;;;4993413;28;20030;-80
2021/07/09 06:23:00;;;;;;;9.32;6.00;;;21.40;94.30;;;;;;5005260;28;20039;-79
2021/07/09 06:25:26;;;;;;;8.43;5.43;;;21.40;94.30;;;;;;4981410;28;20144;-79
2021/07/09 06:27:51;;;;;;;7.30;5.25;;;21.40;94.30;;;;;;5006907;28;20069;-79
2021/07/09 06:30:17;;;;;;;11.05;5.18;;;21.40;94.30;;;;;;4992740;28;20030;-78
2021/07/09 06:32:43;;;;;;;8.82;5.43;;;21.40;94.40;;;;;;4993127;28;20077;-79
2021/07/09 06:35:09;;;;;;;9.27;5.72;;;21.40;94.40;;;;;;4992524;28;20019;-79
2021/07/09 06:37:37;;;;;;;10.38;5.47;;;21.40;94.50;;;;;;4992024;28;20486;-81
2021/07/09 06:40:04;;;;;;;8.80;6.10;;;21.40;94.60;;;;;;4993025;28;20015;-81
2021/07/09 06:42:30;;;;;;;8.90;6.50;;;21.40;94.70;;;;;;4993316;28;20023;-84
2021/07/09 06:44:56;;;;;;;7.75;5.38;;;21.40;94.70;;;;;;4992603;28;20560;-84
2021/07/09 06:47:21;;;;;;;14.05;5.82;;;21.40;94.60;;;;;;4992814;28;20530;-81
2021/07/09 06:49:47;;;;;;;12.85;5.93;;;21.40;94.70;;;;;;4992419;28;20027;-83
2021/07/09 06:52:12;;;;;;;9.05;5.90;;;21.40;94.80;;;;;;4992773;28;20498;-80
2021/07/09 06:54:38;;;;;;;10.77;5.18;;;21.50;94.90;;;;;;4990959;28;20026;-79
2021/07/09 06:57:04;;;;;;;11.48;6.20;;;21.40;94.90;;;;;;4991706;28;20129;-84
2021/07/09 06:59:29;;;;;;;6.88;5.47;;;21.50;95.00;;;;;;4990677;28;20031;-84
2021/07/09 07:01:56;;;;;;;8.25;5.70;;;21.50;95.00;;;;;;4991407;28;20038;-80
2021/07/09 07:04:23;;;;;;;7.95;5.55;;;21.50;95.10;;;;;;4991854;28;20035;-81
2021/07/09 07:06:49;;;;;;;13.77;6.43;;;21.50;95.10;;;;;;4991614;28;20078;-84
2021/07/09 07:09:15;;;;;;;11.68;6.28;;;21.50;95.10;;;;;;4992733;28;20023;-80
2021/07/09 07:11:41;;;;;;;7.18;6.20;;;21.50;95.10;;;;;;4992330;28;20050;-81
2021/07/09 07:14:06;;;;;;;9.98;6.63;;;21.50;95.10;;;;;;4991314;28;20062;-83
2021/07/09 07:16:32;;;;;;;11.70;6.38;;;21.50;95.10;;;;;;4992807;28;20065;-82
2021/07/09 07:18:57;;;;;;;8.02;5.57;;;21.40;95.00;;;;;;4992487;28;20034;-85
2021/07/09 07:21:23;;;;;;;9.02;5.43;;;21.50;95.00;;;;;;4992183;28;20494;-84
2021/07/09 07:23:49;;;;;;;11.88;6.25;;;21.50;95.00;;;;;;4992325;28;20029;-81
2021/07/09 07:26:15;;;;;;;10.15;5.88;;;21.40;94.90;;;;;;4992371;28;20054;-85
2021/07/09 07:28:41;;;;;;;8.55;6.13;;;21.40;94.90;;;;;;4992126;28;20089;-84
2021/07/09 07:31:12;;;;;;;8.38;6.40;;;21.40;94.90;;;;;;4992250;28;20041;-84
2021/07/09 07:33:39;;;;;;;12.93;6.45;;;21.40;94.90;;;;;;4992046;28;20471;-83
2021/07/09 07:36:05;;;;;;;11.93;6.80;;;21.40;94.90;;;;;;4991950;28;20393;-81
2021/07/09 07:38:30;;;;;;;11.25;6.20;;;21.40;94.80;;;;;;4992566;28;20026;-85
2021/07/09 07:40:56;;;;;;;7.03;5.40;;;21.40;94.80;;;;;;4991771;28;20077;-85
2021/07/09 07:43:22;;;;;;;8.63;6.50;;;21.40;94.80;;;;;;4992135;28;20080;-81
2021/07/09 07:45:47;;;;;;;9.48;5.72;;;21.40;94.70;;;;;;4991827;28;20030;-87
2021/07/09 07:48:13;;;;;;;10.45;6.22;;;21.40;94.70;;;;;;4992027;28;20021;-87
2021/07/09 07:50:39;;;;;;;10.50;6.47;;;21.40;94.70;;;;;;4991606;28;20546;-82
2021/07/09 07:53:05;;;;;;;7.80;5.93;;;21.40;94.60;;;;;;4992058;28;20018;-78
2021/07/09 07:55:31;;;;;;;10.80;6.70;;;21.40;94.60;;;;;;4990757;28;20101;-79
2021/07/09 07:57:56;;;;;;;7.68;6.20;;;21.40;94.60;;;;;;4991653;28;20081;-81
2021/07/09 08:00:22;;;;;;;9.98;6.50;;;21.40;94.60;;;;;;4991896;28;20045;-82
2021/07/09 08:02:48;;;;;;;12.05;6.35;;;21.40;94.60;;;;;;4990653;28;20026;-80
2021/07/09 08:05:14;;;;;;;9.73;6.03;;;21.40;94.50;;;;;;4992161;28;20018;-78
2021/07/09 08:07:41;;;;;;;9.80;5.90;;;21.40;94.50;;;;;;4991643;28;20022;-81
2021/07/09 08:10:08;;;;;;;11.45;6.38;;;21.40;94.50;;;;;;4990398;28;20111;-81
2021/07/09 08:12:34;;;;;;;6.93;5.50;;;21.40;94.40;;;;;;4992064;28;20022;-82
2021/07/09 08:14:59;;;;;;;12.07;6.90;;;21.40;94.40;;;;;;4991805;28;20444;-84
2021/07/09 08:17:25;;;;;;;8.55;6.15;;;21.40;94.70;;;;;;4991612;28;20053;-82
2021/07/09 08:19:51;;;;;;;7.97;5.88;;;21.40;94.40;;;;;;4991709;28;20025;-82
2021/07/09 08:22:16;;;;;;;8.88;5.43;;;21.40;94.30;;;;;;4991464;28;20063;-83
2021/07/09 08:24:42;;;;;;;9.70;5.60;;;21.40;94.30;;;;;;4991346;28;20427;-83
2021/07/09 08:27:08;;;;;;;8.10;5.70;;;21.40;94.30;;;;;;4991575;28;20073;-84
2021/07/09 08:29:33;;;;;;;8.95;6.03;;;21.40;94.20;;;;;;4992192;28;20026;-81
2021/07/09 08:31:59;;;;;;;8.27;5.90;;;21.40;94.20;;;;;;4990311;28;20050;-82
2021/07/09 08:34:25;;;;;;;8.98;5.90;;;21.40;94.20;;;;;;4991655;28;20101;-79
2021/07/09 08:36:51;;;;;;;8.55;6.28;;;21.40;94.10;;;;;;4991211;28;20391;-81
2021/07/09 08:39:16;;;;;;;9.82;5.82;;;21.40;94.10;;;;;;4991267;28;20206;-85
2021/07/09 08:41:44;;;;;;;6.82;5.55;;;21.40;94.10;;;;;;4991295;28;20500;-85
2021/07/09 08:44:11;;;;;;;7.97;5.80;;;21.40;94.00;;;;;;4991581;28;20029;-80
2021/07/09 08:46:38;;;;;;;7.05;5.65;;;21.40;94.00;;;;;;4989692;28;20026;-79
2021/07/09 08:49:07;;;;;;;10.40;6.05;;;21.40;94.00;;;;;;4991858;28;20034;-79
2021/07/09 08:51:33;;;;;;;6.78;5.47;;;21.40;93.90;;;;;;4991858;28;20022;-79
2021/07/09 08:53:59;;;;;;;7.25;5.70;;;21.40;93.90;;;;;;4991294;28;20026;-79
2021/07/09 08:56:24;;;;;;;9.13;5.70;;;21.40;93.90;;;;;;4991288;28;20030;-80
2021/07/09 08:58:50;;;;;;;7.03;5.63;;;21.40;93.90;;;;;;4991034;28;20027;-79
2021/07/09 09:01:16;;;;;;;8.27;5.75;;;21.40;93.90;;;;;;4991206;28;20065;-79
2021/07/09 09:03:41;;;;;;;7.53;5.32;;;21.40;93.80;;;;;;4989617;28;20026;-80
2021/07/09 09:06:15;;;;;;;8.02;5.63;;;21.40;93.80;;;;;;4991210;28;20037;-81
2021/07/09 09:08:42;;;;;;;6.70;5.38;;;21.40;93.80;;;;;;4991348;28;20018;-84
2021/07/09 09:11:08;;;;;;;7.20;5.22;;;21.40;93.80;;;;;;4991239;28;20065;-85
2021/07/09 09:13:36;;;;;;;7.20;5.50;;;21.40;93.70;;;;;;4991606;28;20050;-79
2021/07/09 09:16:11;;;;;;;7.43;5.88;;;21.40;93.70;;;;;;4991313;28;20035;-79
2021/07/09 09:18:42;;;;;;;6.22;4.53;;;21.40;93.70;;;;;;4990780;28;20030;-79
2021/07/09 09:21:21;;;;;;;8.77;5.35;;;21.40;93.70;;;;;;4994162;28;20018;-80
2021/07/09 09:23:52;;;;;;;6.95;5.70;;;21.40;93.70;;;;;;4994221;28;20033;-83
2021/07/09 09:26:41;;;;;;;6.68;5.18;;;21.40;93.70;;;;;;5009445;28;20494;-81
2021/07/09 09:29:30;;;;;;;6.78;5.45;;;21.40;93.70;;;;;;4994303;28;20063;-81
2021/07/09 09:32:00;;;;;;;8.25;5.50;;;21.40;93.60;;;;;;4987271;28;20038;-78
2021/07/09 09:34:40;;;;;;;6.95;5.13;;;21.40;93.60;;;;;;4994381;28;20431;-80
2021/07/09 09:37:07;;;;;;;7.18;5.50;;;21.40;93.50;;;;;;4992869;28;20121;-80
2021/07/09 09:39:33;;;;;;;6.20;5.07;;;21.40;93.60;;;;;;4994293;28;20387;-80
2021/07/09 09:42:18;;;;;;;6.28;5.10;;;21.30;93.50;;;;;;4994362;28;20034;-81
2021/07/09 09:45:05;;;;;;;6.13;4.78;;;21.40;93.60;;;;;;4994107;28;20046;-82
2021/07/09 09:47:35;;;;;;;8.50;5.40;;;21.40;93.50;;;;;;4994499;28;20034;-81
2021/07/09 09:50:09;;;;;;;7.53;5.75;;;21.40;93.50;;;;;;4994292;28;20486;-81
2021/07/09 09:52:41;;;;;;;7.53;5.13;;;21.40;93.50;;;;;;4993897;28;20030;-79
2021/07/09 09:55:08;;;;;;;6.75;4.63;;;21.40;93.50;;;;;;4994139;28;20483;-85
2021/07/09 09:57:34;;;;;;;6.15;5.13;;;21.40;93.50;;;;;;4994041;28;20042;-84
2021/07/09 10:00:00;;;;;;;8.55;5.53;;;21.40;93.50;;;;;;4993958;28;20489;-84
2021/07/09 10:02:25;;;;;;;8.00;5.78;;;21.40;93.40;;;;;;4993991;28;20030;-78
2021/07/09 10:04:54;;;;;;;9.02;5.50;;;21.40;93.50;;;;;;4993783;28;20023;-78
2021/07/09 10:07:20;;;;;;;6.63;4.72;;;21.40;93.50;;;;;;4993939;28;20390;-79
2021/07/09 10:09:47;;;;;;;8.15;5.13;;;21.40;93.40;;;;;;4993513;28;20026;-79
2021/07/09 10:12:19;;;;;;;7.78;5.43;;;21.40;93.40;;;;;;4993785;28;20038;-84
2021/07/09 10:14:47;;;;;;;7.20;5.68;;;21.40;93.40;;;;;;4993582;28;20033;-85
2021/07/09 10:17:16;;;;;;;7.47;5.15;;;21.40;93.40;;;;;;4992224;28;20038;-85
2021/07/09 10:19:45;;;;;;;6.40;5.30;;;21.40;93.40;;;;;;4993580;28;20032;-85
2021/07/09 10:22:12;;;;;;;8.35;4.82;;;21.40;93.40;;;;;;4993557;28;20085;-78
2021/07/09 10:24:45;;;;;;;6.85;4.53;;;21.40;93.40;;;;;;4993253;28;20413;-78
2021/07/09 10:27:12;;;;;;;9.32;4.90;;;21.40;93.40;;;;;;4993367;28;20444;-79
2021/07/09 10:29:43;;;;;;;6.65;5.22;;;21.40;93.30;;;;;;4993092;28;20430;-80
2021/07/09 10:32:09;;;;;;;7.50;5.15;;;21.40;93.40;;;;;;4992251;28;20101;-80
2021/07/09 10:34:41;;;;;;;7.68;5.00;;;21.40;93.40;;;;;;4993288;28;20559;-78
2021/07/09 10:37:30;;;;;;;7.38;5.45;;;21.40;93.40;;;;;;4992981;28;20495;-78
2021/07/09 10:40:08;;;;;;;7.03;4.93;;;21.40;93.30;;;;;;4993040;28;20042;-79
2021/07/09 10:42:39;;;;;;;8.50;5.65;;;21.40;93.30;;;;;;4993426;28;20069;-79
2021/07/09 10:45:25;;;;;;;6.45;5.10;;;21.40;93.30;;;;;;4991935;28;20042;-78
2021/07/09 10:48:05;;;;;;;;;;;21.40;93.30;;;;;;4993000;28;20029;-78
2021/07/09 10:51:00;;;;;;;6.50;4.47;;;21.40;93.30;;;;;;4992000;28;19963;-81
2021/07/09 10:53:26;;;;;;;6.25;4.80;;;21.40;93.30;;;;;;4984485;28;20613;-80
2021/07/09 10:55:53;;;;;;;6.70;5.07;;;21.40;93.30;;;;;;4992639;28;20089;-82
2021/07/09 10:58:22;;;;;;;6.38;4.65;;;21.40;93.30;;;;;;4992637;28;20035;-83
2021/07/09 11:01:05;;;;;;;6.68;4.50;;;21.40;93.30;;;;;;4992399;28;20044;-80
2021/07/09 11:03:37;;;;;;;5.65;4.38;;;21.40;93.30;;;;;;4992966;28;20064;-80
2021/07/09 11:06:15;;;;;;;6.30;5.00;;;21.40;93.30;;;;;;4993090;28;20022;-79
2021/07/09 11:08:44;;;;;;;6.22;5.10;;;21.40;93.30;;;;;;5007703;28;20026;-80
2021/07/09 11:11:16;;;;;;;6.18;4.50;;;21.40;93.30;;;;;;4992677;28;20379;-81
2021/07/09 11:13:42;;;;;;;7.55;4.40;;;21.40;93.30;;;;;;4992729;28;20101;-80
2021/07/09 11:16:35;;;;;;;6.80;5.07;;;21.40;93.30;;;;;;4992623;28;20534;-80
2021/07/09 11:19:02;;;;;;;7.10;4.85;;;21.40;93.30;;;;;;4992889;28;20034;-83
2021/07/09 11:21:30;;;;;;;7.85;5.43;;;21.40;93.30;;;;;;4992472;28;20385;-81
2021/07/09 11:24:00;;;;;;;6.75;4.72;;;21.40;93.20;;;;;;4992682;28;20030;-80
2021/07/09 11:26:29;;;;;;;7.38;4.95;;;21.50;93.20;;;;;;4992432;28;20030;-81
2021/07/09 11:28:58;;;;;;;7.38;4.78;;;21.40;93.30;;;;;;4992177;28;20509;-81
2021/07/09 11:31:31;;;;;;;5.82;4.75;;;21.50;93.20;;;;;;5007277;28;20125;-79
2021/07/09 11:34:07;;;;;;;6.60;4.85;;;21.50;93.20;;;;;;4991925;28;20102;-79
2021/07/09 11:37:00;;;;;;;6.70;4.70;;;21.50;93.20;;;;;;4991200;28;20406;-79
2021/07/09 11:39:34;;;;;;;6.38;4.70;;;21.50;93.20;;;;;;4977116;28;20034;-80
2021/07/09 11:42:02;;;;;;;5.55;4.55;;;21.50;93.20;;;;;;4992373;28;20161;-80
2021/07/09 11:44:31;;;;;;;5.32;4.55;;;21.50;93.20;;;;;;4991942;28;20022;-83
2021/07/09 11:47:03;;;;;;;6.22;4.45;;;21.50;93.10;;;;;;4990469;28;20045;-84
2021/07/09 11:49:32;;;;;;;5.68;3.95;;;21.50;93.20;;;;;;4991986;28;20025;-84
2021/07/09 11:52:09;;;;;;;6.88;4.88;;;21.50;93.10;;;;;;4991609;28;20088;-83
2021/07/09 11:54:40;;;;;;;6.95;4.85;;;21.50;93.10;;;;;;4991674;28;20108;-78
2021/07/09 11:57:15;;;;;;;6.03;4.60;;;21.50;93.10;;;;;;4991757;28;20451;-78
2021/07/09 11:59:43;;;;;;;5.53;4.57;;;21.50;93.10;;;;;;4991559;28;20109;-79
2021/07/09 12:02:10;;;;;;;7.35;4.10;;;21.50;93.10;;;;;;4990361;28;20034;-84
2021/07/09 12:04:41;;;;;;;6.35;5.07;;;21.60;93.10;;;;;;4991664;28;20482;-84
2021/07/09 12:07:26;;;;;;;6.78;4.82;;;21.60;93.10;;;;;;4991563;28;20393;-84
2021/07/09 12:10:15;;;;;;;7.13;4.70;;;21.60;93.10;;;;;;4991434;28;20503;-83
2021/07/09 12:12:43;;;;;;;5.60;4.28;;;21.60;93.10;;;;;;4991489;28;20026;-85
2021/07/09 12:15:19;;;;;;;4.75;3.90;;;21.60;93.10;;;;;;4991467;28;20501;-85
2021/07/09 12:17:57;;;;;;;5.65;3.90;;;21.60;93.00;;;;;;4991543;28;20037;-83
2021/07/09 12:20:27;;;;;;;7.10;4.20;;;21.60;93.00;;;;;;4991847;28;20486;-84
2021/07/09 12:23:10;;;;;;;6.07;4.13;;;21.60;93.00;;;;;;4991419;28;20537;-83
2021/07/09 12:25:36;;;;;;;5.88;4.28;;;21.60;93.10;;;;;;4991374;28;20434;-83
2021/07/09 12:28:11;;;;;;;5.88;4.47;;;21.60;93.10;;;;;;4991781;28;20030;-84
2021/07/09 12:30:51;;;;;;;5.40;4.07;;;21.60;93.10;;;;;;4989967;28;20029;-84
2021/07/09 12:33:26;;;;;;;5.75;4.50;;;21.70;93.10;;;;;;4991420;28;20035;-84
2021/07/09 12:35:56;;;;;;;5.65;3.88;;;21.70;93.00;;;;;;4989929;28;20058;-84
2021/07/09 12:38:21;;;;;;;7.00;4.10;;;21.70;93.00;;;;;;4991264;28;20128;-80
2021/07/09 12:40:52;;;;;;;5.68;4.07;;;21.70;93.00;;;;;;4990910;28;20050;-81
2021/07/09 12:43:24;;;;;;;5.97;4.00;;;21.70;93.00;;;;;;4991541;28;20026;-79
2021/07/09 12:45:58;;;;;;;5.35;3.83;;;21.70;93.00;;;;;;4991359;28;20026;-82
2021/07/09 12:48:45;;;;;;;6.17;4.10;;;21.70;93.00;;;;;;5006433;28;20030;-78
2021/07/09 12:51:21;;;;;;;5.47;4.07;;;21.70;93.00;;;;;;4991237;28;20394;-79